Lewiston, ID

12:57 AM PDT ye 22 October, 2014 (GMT -0700)
Normal Hill Weather Station | Change Station
CLOSE
Current Station
Personal Weather Stations
Location: Lewiston, ID
Elevation: 805 ft
Nearby Weather Stations

Elev 805 ft 46.42 °N, 117.03 °W | Updated 3 seconds ago

Clear
Klara
47.1 °F
Feels Like 47 °F
N
0.0
Vento Variema Vento from ESE
Gusts 0.0 mph

Hodie
High -- | Low -- °F
--% Chance of Precip.
Yesterday
High -- | Low -- °F
Precip. -- in
7:15 AM 5:48 PM
Waning Crescent, 3% visible
Presuro 30.00 in
Videbleso 10.0 milii
Clouds Klara
Ventokoldeso 47 °F
Rosifopunto 26 °F
Humideso 42%
Rainfall 0.00 in
Snow Depth Not available.
UV 0 out of 12
Pollen 1.60 out of 12
Air Quality Not available.
Flu Activity Sporadic
METAR KLWS 220656Z AUTO 15003KT 10SM CLR 08/03 A3000

More Conditions Fewer Conditions

Presuro 30.00 in
Videbleso 10.0 milii
Clouds Klara
Ventokoldeso 47 °F
Rosifopunto 26 °F
Humideso 42%
Rainfall 0.00 in
Snow Depth Not available.
UV 0 out of 12
Pollen 1.60 out of 12
Air Quality Not available.
Flu Activity Sporadic
METAR KLWS 220656Z AUTO 15003KT 10SM CLR 08/03 A3000

More Conditions Fewer Conditions

10-Day Weather Forecast

Almanac

Astronomy

Oct. 22, 2014 Rise Set
Actual Time 7:15 AM PDT 5:48 PM PDT
Civil Twilight 6:44 AM PDT 6:19 PM PDT
Nautical Twilight 6:09 AM PDT 6:54 PM PDT
Astronomical Twilight 5:34 AM PDT 7:29 PM PDT
Moon 5:56 AM PDT 5:20 PM PDT
Length Of Visible Light 11h 35m
Length of Day
10h 33m
Tomorrow will be 3m 6s shorter.
Waning Crescent, 3% of the Moon is Illuminated
Hodie
Waning Crescent
Oct 23
New
Oct 30
First Quarter
Nov 6
Full
Nov 14
Last Quarter

Today's Extremes

State Highs State Lows

Community

WunderPhotos

Upload Photos

1,763,889 photos uploaded!

Nearby

Snow Depth

Station Depth Elevation
Moscow Mountain 1 in 4700 ft
Sherwin 0 in 3200 ft
Elk Butte 0 in 5690 ft
Shanghi Summit 0 in 4570 ft
Mica Creek 2 in 4750 ft

Earthquake Activity

City Distance Mag. Time & Date
No recent earthquake activity has been reported nearby.
Minimum magnitude displayed is 2.5.

Coastal Water Temperatures

Loko Temperaturo
No Stations Reporting

Nearby Weather Stations